sensor_id;sensor_type;location;lat;lon;timestamp;temperature;humidity
25945;SHT31;13742;49.306;8.636;2022-08-21T00:00:53;21.63;52.45
25945;SHT31;13742;49.306;8.636;2022-08-21T00:01:53;21.63;52.37
25945;SHT31;13742;49.306;8.636;2022-08-21T00:03:03;21.63;53.16
25945;SHT31;13742;49.306;8.636;2022-08-21T00:03:54;21.61;52.84
25945;SHT31;13742;49.306;8.636;2022-08-21T00:04:53;21.60;52.40
25945;SHT31;13742;49.306;8.636;2022-08-21T00:05:53;21.60;52.42
25945;SHT31;13742;49.306;8.636;2022-08-21T00:06:53;21.60;52.68
25945;SHT31;13742;49.306;8.636;2022-08-21T00:07:53;21.58;52.35
25945;SHT31;13742;49.306;8.636;2022-08-21T00:08:53;21.60;52.61
25945;SHT31;13742;49.306;8.636;2022-08-21T00:09:53;21.61;52.81
25945;SHT31;13742;49.306;8.636;2022-08-21T00:10:53;21.57;53.57
25945;SHT31;13742;49.306;8.636;2022-08-21T00:11:53;21.57;53.46
25945;SHT31;13742;49.306;8.636;2022-08-21T00:12:53;21.57;53.16
25945;SHT31;13742;49.306;8.636;2022-08-21T00:13:54;21.54;53.19
25945;SHT31;13742;49.306;8.636;2022-08-21T00:14:53;21.50;53.46
25945;SHT31;13742;49.306;8.636;2022-08-21T00:15:53;21.49;53.27
25945;SHT31;13742;49.306;8.636;2022-08-21T00:16:53;21.46;53.48
25945;SHT31;13742;49.306;8.636;2022-08-21T00:17:54;21.43;53.37
25945;SHT31;13742;49.306;8.636;2022-08-21T00:18:53;21.43;53.35
25945;SHT31;13742;49.306;8.636;2022-08-21T00:19:53;21.40;53.44
25945;SHT31;13742;49.306;8.636;2022-08-21T00:20:53;21.39;53.72
25945;SHT31;13742;49.306;8.636;2022-08-21T00:21:54;21.36;53.76
25945;SHT31;13742;49.306;8.636;2022-08-21T00:22:53;21.32;53.72
25945;SHT31;13742;49.306;8.636;2022-08-21T00:23:53;21.32;54.01
25945;SHT31;13742;49.306;8.636;2022-08-21T00:24:53;21.30;54.28
25945;SHT31;13742;49.306;8.636;2022-08-21T00:25:53;21.29;53.88
25945;SHT31;13742;49.306;8.636;2022-08-21T00:26:53;21.26;53.83
25945;SHT31;13742;49.306;8.636;2022-08-21T00:27:54;21.25;54.15
25945;SHT31;13742;49.306;8.636;2022-08-21T00:28:53;21.25;54.27
25945;SHT31;13742;49.306;8.636;2022-08-21T00:29:53;21.23;54.34
25945;SHT31;13742;49.306;8.636;2022-08-21T00:30:53;21.22;53.69
25945;SHT31;13742;49.306;8.636;2022-08-21T00:31:53;21.22;53.55
25945;SHT31;13742;49.306;8.636;2022-08-21T00:32:55;21.22;53.77
25945;SHT31;13742;49.306;8.636;2022-08-21T00:33:53;21.25;53.60
25945;SHT31;13742;49.306;8.636;2022-08-21T00:34:53;21.20;53.98
25945;SHT31;13742;49.306;8.636;2022-08-21T00:35:53;21.19;54.07
25945;SHT31;13742;49.306;8.636;2022-08-21T00:36:53;21.16;53.85
25945;SHT31;13742;49.306;8.636;2022-08-21T00:37:53;21.19;53.53
25945;SHT31;13742;49.306;8.636;2022-08-21T00:38:53;21.20;53.70
25945;SHT31;13742;49.306;8.636;2022-08-21T00:39:53;21.20;53.66
25945;SHT31;13742;49.306;8.636;2022-08-21T00:40:58;21.17;53.73
25945;SHT31;13742;49.306;8.636;2022-08-21T00:41:53;21.15;53.84
25945;SHT31;13742;49.306;8.636;2022-08-21T00:42:53;21.13;53.75
25945;SHT31;13742;49.306;8.636;2022-08-21T00:43:53;21.15;53.40
25945;SHT31;13742;49.306;8.636;2022-08-21T00:44:53;21.15;53.51
25945;SHT31;13742;49.306;8.636;2022-08-21T00:45:54;21.15;53.40
25945;SHT31;13742;49.306;8.636;2022-08-21T00:46:53;21.15;53.62
25945;SHT31;13742;49.306;8.636;2022-08-21T00:47:55;21.13;53.41
25945;SHT31;13742;49.306;8.636;2022-08-21T00:48:53;21.13;53.21
25945;SHT31;13742;49.306;8.636;2022-08-21T00:49:53;21.10;53.15
25945;SHT31;13742;49.306;8.636;2022-08-21T00:51:02;21.12;53.86
25945;SHT31;13742;49.306;8.636;2022-08-21T00:51:55;21.10;53.70
25945;SHT31;13742;49.306;8.636;2022-08-21T00:52:53;21.06;53.83
25945;SHT31;13742;49.306;8.636;2022-08-21T00:53:57;21.05;53.51
25945;SHT31;13742;49.306;8.636;2022-08-21T00:54:53;21.03;53.81
25945;SHT31;13742;49.306;8.636;2022-08-21T00:55:54;21.02;53.57
25945;SHT31;13742;49.306;8.636;2022-08-21T00:56:57;20.98;53.63
25945;SHT31;13742;49.306;8.636;2022-08-21T00:57:55;20.95;54.08
25945;SHT31;13742;49.306;8.636;2022-08-21T00:58:54;20.91;53.68
25945;SHT31;13742;49.306;8.636;2022-08-21T00:59:56;20.92;53.92
25945;SHT31;13742;49.306;8.636;2022-08-21T01:00:53;20.91;54.16
25945;SHT31;13742;49.306;8.636;2022-08-21T01:01:53;20.84;53.78
25945;SHT31;13742;49.306;8.636;2022-08-21T01:02:53;20.85;53.72
25945;SHT31;13742;49.306;8.636;2022-08-21T01:03:53;20.85;54.11
25945;SHT31;13742;49.306;8.636;2022-08-21T01:04:54;20.84;54.28
25945;SHT31;13742;49.306;8.636;2022-08-21T01:05:54;20.82;54.49
25945;SHT31;13742;49.306;8.636;2022-08-21T01:06:55;20.79;54.29
25945;SHT31;13742;49.306;8.636;2022-08-21T01:07:55;20.76;54.27
25945;SHT31;13742;49.306;8.636;2022-08-21T01:08:53;20.75;54.17
25945;SHT31;13742;49.306;8.636;2022-08-21T01:09:53;20.75;54.48
25945;SHT31;13742;49.306;8.636;2022-08-21T01:10:53;20.78;54.65
25945;SHT31;13742;49.306;8.636;2022-08-21T01:11:53;20.75;54.45
25945;SHT31;13742;49.306;8.636;2022-08-21T01:12:55;20.76;54.32
25945;SHT31;13742;49.306;8.636;2022-08-21T01:13:54;20.72;54.76
25945;SHT31;13742;49.306;8.636;2022-08-21T01:14:53;20.72;54.65
25945;SHT31;13742;49.306;8.636;2022-08-21T01:15:55;20.68;55.41
25945;SHT31;13742;49.306;8.636;2022-08-21T01:16:54;20.70;55.42
25945;SHT31;13742;49.306;8.636;2022-08-21T01:17:53;20.65;55.37
25945;SHT31;13742;49.306;8.636;2022-08-21T01:18:53;20.62;55.46
25945;SHT31;13742;49.306;8.636;2022-08-21T01:19:57;20.57;55.48
25945;SHT31;13742;49.306;8.636;2022-08-21T01:21:03;20.58;55.39
25945;SHT31;13742;49.306;8.636;2022-08-21T01:21:53;20.52;55.99
25945;SHT31;13742;49.306;8.636;2022-08-21T01:22:53;20.50;55.66
25945;SHT31;13742;49.306;8.636;2022-08-21T01:23:54;20.47;56.01
25945;SHT31;13742;49.306;8.636;2022-08-21T01:24:53;20.34;56.54
25945;SHT31;13742;49.306;8.636;2022-08-21T01:25:53;20.23;56.25
25945;SHT31;13742;49.306;8.636;2022-08-21T01:26:54;20.26;55.90
25945;SHT31;13742;49.306;8.636;2022-08-21T01:27:53;20.26;55.68
25945;SHT31;13742;49.306;8.636;2022-08-21T01:29:00;20.28;55.63
25945;SHT31;13742;49.306;8.636;2022-08-21T01:29:57;20.27;56.25
25945;SHT31;13742;49.306;8.636;2022-08-21T01:30:53;20.26;55.56
25945;SHT31;13742;49.306;8.636;2022-08-21T01:31:53;20.26;55.41
25945;SHT31;13742;49.306;8.636;2022-08-21T01:32:54;20.23;55.90
25945;SHT31;13742;49.306;8.636;2022-08-21T01:33:54;20.21;56.07
25945;SHT31;13742;49.306;8.636;2022-08-21T01:34:53;20.20;56.59
25945;SHT31;13742;49.306;8.636;2022-08-21T01:35:53;20.16;55.78
25945;SHT31;13742;49.306;8.636;2022-08-21T01:36:53;20.16;55.90
25945;SHT31;13742;49.306;8.636;2022-08-21T01:37:53;20.15;55.90
25945;SHT31;13742;49.306;8.636;2022-08-21T01:38:53;20.10;56.69
25945;SHT31;13742;49.306;8.636;2022-08-21T01:39:53;20.12;56.00
25945;SHT31;13742;49.306;8.636;2022-08-21T01:40:53;20.09;56.17
25945;SHT31;13742;49.306;8.636;2022-08-21T01:41:53;20.07;56.95
25945;SHT31;13742;49.306;8.636;2022-08-21T01:42:53;20.02;57.03
25945;SHT31;13742;49.306;8.636;2022-08-21T01:43:53;19.99;57.09
25945;SHT31;13742;49.306;8.636;2022-08-21T01:44:53;20.00;56.95
25945;SHT31;13742;49.306;8.636;2022-08-21T01:45:53;19.93;57.78
25945;SHT31;13742;49.306;8.636;2022-08-21T01:46:53;19.93;57.43
25945;SHT31;13742;49.306;8.636;2022-08-21T01:47:53;19.93;57.59
25945;SHT31;13742;49.306;8.636;2022-08-21T01:48:53;19.89;57.30
25945;SHT31;13742;49.306;8.636;2022-08-21T01:49:53;19.85;57.74
25945;SHT31;13742;49.306;8.636;2022-08-21T01:50:53;19.80;57.71
25945;SHT31;13742;49.306;8.636;2022-08-21T01:51:53;19.80;57.31
25945;SHT31;13742;49.306;8.636;2022-08-21T01:52:53;19.83;57.52
25945;SHT31;13742;49.306;8.636;2022-08-21T01:53:53;19.78;57.78
25945;SHT31;13742;49.306;8.636;2022-08-21T01:54:53;19.75;57.78
25945;SHT31;13742;49.306;8.636;2022-08-21T01:55:53;19.73;57.84
25945;SHT31;13742;49.306;8.636;2022-08-21T01:56:54;19.75;57.71
25945;SHT31;13742;49.306;8.636;2022-08-21T01:57:53;19.69;57.80
25945;SHT31;13742;49.306;8.636;2022-08-21T01:58:53;19.69;57.43
25945;SHT31;13742;49.306;8.636;2022-08-21T01:59:53;19.66;57.97
25945;SHT31;13742;49.306;8.636;2022-08-21T02:00:53;19.68;57.91
25945;SHT31;13742;49.306;8.636;2022-08-21T02:01:56;19.68;57.62
25945;SHT31;13742;49.306;8.636;2022-08-21T02:02:53;19.65;58.44
25945;SHT31;13742;49.306;8.636;2022-08-21T02:03:53;19.64;58.15
25945;SHT31;13742;49.306;8.636;2022-08-21T02:04:53;19.62;58.25
25945;SHT31;13742;49.306;8.636;2022-08-21T02:05:53;19.62;58.25
25945;SHT31;13742;49.306;8.636;2022-08-21T02:06:53;19.61;57.96
25945;SHT31;13742;49.306;8.636;2022-08-21T02:07:55;19.62;58.34
25945;SHT31;13742;49.306;8.636;2022-08-21T02:08:53;19.64;58.30
25945;SHT31;13742;49.306;8.636;2022-08-21T02:09:53;19.62;58.25
25945;SHT31;13742;49.306;8.636;2022-08-21T02:10:53;19.61;58.23
25945;SHT31;13742;49.306;8.636;2022-08-21T02:11:53;19.57;58.06
25945;SHT31;13742;49.306;8.636;2022-08-21T02:12:54;19.55;58.13
25945;SHT31;13742;49.306;8.636;2022-08-21T02:13:53;19.54;58.62
25945;SHT31;13742;49.306;8.636;2022-08-21T02:14:53;19.49;58.49
25945;SHT31;13742;49.306;8.636;2022-08-21T02:15:53;19.51;58.54
25945;SHT31;13742;49.306;8.636;2022-08-21T02:16:53;19.52;58.57
25945;SHT31;13742;49.306;8.636;2022-08-21T02:17:55;19.51;58.21
25945;SHT31;13742;49.306;8.636;2022-08-21T02:18:53;19.49;58.75
25945;SHT31;13742;49.306;8.636;2022-08-21T02:19:53;19.49;58.70
25945;SHT31;13742;49.306;8.636;2022-08-21T02:20:53;19.48;58.96
25945;SHT31;13742;49.306;8.636;2022-08-21T02:21:53;19.47;58.88
25945;SHT31;13742;49.306;8.636;2022-08-21T02:22:54;19.45;59.14
25945;SHT31;13742;49.306;8.636;2022-08-21T02:23:53;19.44;59.07
25945;SHT31;13742;49.306;8.636;2022-08-21T02:24:53;19.44;58.95
25945;SHT31;13742;49.306;8.636;2022-08-21T02:26:00;19.44;58.81
25945;SHT31;13742;49.306;8.636;2022-08-21T02:26:53;19.44;58.41
25945;SHT31;13742;49.306;8.636;2022-08-21T02:27:54;19.41;59.11
25945;SHT31;13742;49.306;8.636;2022-08-21T02:28:53;19.41;58.96
25945;SHT31;13742;49.306;8.636;2022-08-21T02:29:55;19.38;58.66
25945;SHT31;13742;49.306;8.636;2022-08-21T02:30:54;19.38;58.87
25945;SHT31;13742;49.306;8.636;2022-08-21T02:31:53;19.41;59.10
25945;SHT31;13742;49.306;8.636;2022-08-21T02:32:53;19.38;59.05
25945;SHT31;13742;49.306;8.636;2022-08-21T02:33:53;19.35;58.98
25945;SHT31;13742;49.306;8.636;2022-08-21T02:34:54;19.37;58.74
25945;SHT31;13742;49.306;8.636;2022-08-21T02:35:54;19.37;58.80
25945;SHT31;13742;49.306;8.636;2022-08-21T02:36:53;19.37;58.56
25945;SHT31;13742;49.306;8.636;2022-08-21T02:37:58;19.35;58.70
25945;SHT31;13742;49.306;8.636;2022-08-21T02:38:53;19.31;58.81
25945;SHT31;13742;49.306;8.636;2022-08-21T02:39:53;19.33;59.19
25945;SHT31;13742;49.306;8.636;2022-08-21T02:40:54;19.28;59.37
25945;SHT31;13742;49.306;8.636;2022-08-21T02:41:53;19.24;59.15
25945;SHT31;13742;49.306;8.636;2022-08-21T02:42:53;19.26;58.89
25945;SHT31;13742;49.306;8.636;2022-08-21T02:43:53;19.24;58.48
25945;SHT31;13742;49.306;8.636;2022-08-21T02:44:53;19.27;58.67
25945;SHT31;13742;49.306;8.636;2022-08-21T02:45:54;19.24;58.53
25945;SHT31;13742;49.306;8.636;2022-08-21T02:46:53;19.21;59.19
25945;SHT31;13742;49.306;8.636;2022-08-21T02:48:03;19.13;59.72
25945;SHT31;13742;49.306;8.636;2022-08-21T02:48:53;19.13;59.45
25945;SHT31;13742;49.306;8.636;2022-08-21T02:49:53;19.13;59.33
25945;SHT31;13742;49.306;8.636;2022-08-21T02:50:59;19.14;59.20
25945;SHT31;13742;49.306;8.636;2022-08-21T02:51:53;19.13;58.79
25945;SHT31;13742;49.306;8.636;2022-08-21T02:52:54;19.13;58.91
25945;SHT31;13742;49.306;8.636;2022-08-21T02:53:53;19.13;59.57
25945;SHT31;13742;49.306;8.636;2022-08-21T02:54:53;19.13;58.91
25945;SHT31;13742;49.306;8.636;2022-08-21T02:55:53;19.10;59.16
25945;SHT31;13742;49.306;8.636;2022-08-21T02:56:53;19.10;59.16
25945;SHT31;13742;49.306;8.636;2022-08-21T02:57:54;19.10;58.65
25945;SHT31;13742;49.306;8.636;2022-08-21T02:58:53;19.10;59.13
25945;SHT31;13742;49.306;8.636;2022-08-21T02:59:53;19.11;59.27
25945;SHT31;13742;49.306;8.636;2022-08-21T03:00:53;19.10;59.24
25945;SHT31;13742;49.306;8.636;2022-08-21T03:01:53;19.08;59.49
25945;SHT31;13742;49.306;8.636;2022-08-21T03:02:53;19.08;59.16
25945;SHT31;13742;49.306;8.636;2022-08-21T03:03:53;19.06;59.19
25945;SHT31;13742;49.306;8.636;2022-08-21T03:04:53;19.03;59.29
25945;SHT31;13742;49.306;8.636;2022-08-21T03:05:53;19.06;59.11
25945;SHT31;13742;49.306;8.636;2022-08-21T03:06:53;19.06;59.56
25945;SHT31;13742;49.306;8.636;2022-08-21T03:07:54;19.06;59.40
25945;SHT31;13742;49.306;8.636;2022-08-21T03:08:53;19.07;58.84
25945;SHT31;13742;49.306;8.636;2022-08-21T03:09:53;19.01;59.00
25945;SHT31;13742;49.306;8.636;2022-08-21T03:10:53;19.01;59.00
25945;SHT31;13742;49.306;8.636;2022-08-21T03:11:53;18.98;58.81
25945;SHT31;13742;49.306;8.636;2022-08-21T03:12:54;18.96;59.27
25945;SHT31;13742;49.306;8.636;2022-08-21T03:13:53;18.90;59.40
25945;SHT31;13742;49.306;8.636;2022-08-21T03:14:53;18.90;59.25
25945;SHT31;13742;49.306;8.636;2022-08-21T03:15:53;18.87;59.50
25945;SHT31;13742;49.306;8.636;2022-08-21T03:16:53;18.83;59.64
25945;SHT31;13742;49.306;8.636;2022-08-21T03:17:54;18.84;59.33
25945;SHT31;13742;49.306;8.636;2022-08-21T03:18:53;18.82;59.39
25945;SHT31;13742;49.306;8.636;2022-08-21T03:19:53;18.83;59.46
25945;SHT31;13742;49.306;8.636;2022-08-21T03:20:53;18.82;59.68
25945;SHT31;13742;49.306;8.636;2022-08-21T03:21:53;18.79;59.77
25945;SHT31;13742;49.306;8.636;2022-08-21T03:22:54;18.79;59.83
25945;SHT31;13742;49.306;8.636;2022-08-21T03:23:54;18.79;59.92
25945;SHT31;13742;49.306;8.636;2022-08-21T03:24:53;18.79;59.91
25945;SHT31;13742;49.306;8.636;2022-08-21T03:25:53;18.73;60.14
25945;SHT31;13742;49.306;8.636;2022-08-21T03:26:53;18.73;59.76
25945;SHT31;13742;49.306;8.636;2022-08-21T03:27:53;18.73;60.27
25945;SHT31;13742;49.306;8.636;2022-08-21T03:28:53;18.68;60.80
25945;SHT31;13742;49.306;8.636;2022-08-21T03:29:54;18.63;60.79
25945;SHT31;13742;49.306;8.636;2022-08-21T03:30:53;18.65;60.54
25945;SHT31;13742;49.306;8.636;2022-08-21T03:31:55;18.63;59.98
25945;SHT31;13742;49.306;8.636;2022-08-21T03:32:53;18.65;60.20
25945;SHT31;13742;49.306;8.636;2022-08-21T03:33:55;18.65;60.07
25945;SHT31;13742;49.306;8.636;2022-08-21T03:34:53;18.65;60.14
25945;SHT31;13742;49.306;8.636;2022-08-21T03:35:58;18.66;60.45
25945;SHT31;13742;49.306;8.636;2022-08-21T03:36:53;18.68;60.27
25945;SHT31;13742;49.306;8.636;2022-08-21T03:37:54;18.65;60.63
25945;SHT31;13742;49.306;8.636;2022-08-21T03:38:53;18.62;59.96
25945;SHT31;13742;49.306;8.636;2022-08-21T03:39:53;18.62;60.52
25945;SHT31;13742;49.306;8.636;2022-08-21T03:40:53;18.63;60.72
25945;SHT31;13742;49.306;8.636;2022-08-21T03:41:54;18.63;60.73
25945;SHT31;13742;49.306;8.636;2022-08-21T03:42:53;18.60;60.60
25945;SHT31;13742;49.306;8.636;2022-08-21T03:43:53;18.58;60.69
25945;SHT31;13742;49.306;8.636;2022-08-21T03:44:53;18.55;60.79
25945;SHT31;13742;49.306;8.636;2022-08-21T03:45:53;18.52;61.21
25945;SHT31;13742;49.306;8.636;2022-08-21T03:46:53;18.48;60.95
25945;SHT31;13742;49.306;8.636;2022-08-21T03:47:58;18.46;61.21
25945;SHT31;13742;49.306;8.636;2022-08-21T03:48:53;18.48;60.97
25945;SHT31;13742;49.306;8.636;2022-08-21T03:49:54;18.48;61.26
25945;SHT31;13742;49.306;8.636;2022-08-21T03:50:53;18.45;61.22
25945;SHT31;13742;49.306;8.636;2022-08-21T03:51:54;18.42;61.12
25945;SHT31;13742;49.306;8.636;2022-08-21T03:52:53;18.41;61.25
25945;SHT31;13742;49.306;8.636;2022-08-21T03:53:54;18.39;61.15
25945;SHT31;13742;49.306;8.636;2022-08-21T03:54:53;18.38;61.06
25945;SHT31;13742;49.306;8.636;2022-08-21T03:55:53;18.36;61.03
25945;SHT31;13742;49.306;8.636;2022-08-21T03:56:53;18.39;60.89
25945;SHT31;13742;49.306;8.636;2022-08-21T03:57:53;18.41;61.25
25945;SHT31;13742;49.306;8.636;2022-08-21T03:58:53;18.39;61.02
25945;SHT31;13742;49.306;8.636;2022-08-21T03:59:53;18.39;61.04
25945;SHT31;13742;49.306;8.636;2022-08-21T04:00:58;18.39;60.96
25945;SHT31;13742;49.306;8.636;2022-08-21T04:01:55;18.41;61.53
25945;SHT31;13742;49.306;8.636;2022-08-21T04:02:53;18.38;61.40
25945;SHT31;13742;49.306;8.636;2022-08-21T04:03:53;18.38;61.36
25945;SHT31;13742;49.306;8.636;2022-08-21T04:04:53;18.36;61.62
25945;SHT31;13742;49.306;8.636;2022-08-21T04:05:53;18.35;61.48
25945;SHT31;13742;49.306;8.636;2022-08-21T04:06:54;18.32;61.13
25945;SHT31;13742;49.306;8.636;2022-08-21T04:07:55;18.31;61.74
25945;SHT31;13742;49.306;8.636;2022-08-21T04:08:53;18.31;61.51
25945;SHT31;13742;49.306;8.636;2022-08-21T04:09:53;18.25;61.73
25945;SHT31;13742;49.306;8.636;2022-08-21T04:10:55;18.25;61.26
25945;SHT31;13742;49.306;8.636;2022-08-21T04:11:53;18.24;61.26
25945;SHT31;13742;49.306;8.636;2022-08-21T04:12:53;18.24;61.49
25945;SHT31;13742;49.306;8.636;2022-08-21T04:13:53;18.25;61.46
25945;SHT31;13742;49.306;8.636;2022-08-21T04:14:53;18.22;62.31
25945;SHT31;13742;49.306;8.636;2022-08-21T04:15:54;18.17;62.60
25945;SHT31;13742;49.306;8.636;2022-08-21T04:16:53;18.14;62.37
25945;SHT31;13742;49.306;8.636;2022-08-21T04:17:53;18.14;62.09
25945;SHT31;13742;49.306;8.636;2022-08-21T04:18:53;18.15;62.10
25945;SHT31;13742;49.306;8.636;2022-08-21T04:19:53;18.12;61.59
25945;SHT31;13742;49.306;8.636;2022-08-21T04:20:54;18.15;61.81
25945;SHT31;13742;49.306;8.636;2022-08-21T04:21:53;18.14;62.22
25945;SHT31;13742;49.306;8.636;2022-08-21T04:22:53;18.12;62.26
25945;SHT31;13742;49.306;8.636;2022-08-21T04:23:56;18.14;62.38
25945;SHT31;13742;49.306;8.636;2022-08-21T04:24:53;18.14;61.72
25945;SHT31;13742;49.306;8.636;2022-08-21T04:25:55;18.15;62.11
25945;SHT31;13742;49.306;8.636;2022-08-21T04:26:53;18.15;61.74
25945;SHT31;13742;49.306;8.636;2022-08-21T04:27:53;18.18;61.75
25945;SHT31;13742;49.306;8.636;2022-08-21T04:28:53;18.17;62.02
25945;SHT31;13742;49.306;8.636;2022-08-21T04:29:53;18.15;62.64
25945;SHT31;13742;49.306;8.636;2022-08-21T04:30:53;18.15;62.06
25945;SHT31;13742;49.306;8.636;2022-08-21T04:31:53;18.09;61.98
25945;SHT31;13742;49.306;8.636;2022-08-21T04:32:53;18.07;62.03
25945;SHT31;13742;49.306;8.636;2022-08-21T04:33:53;18.04;61.93
25945;SHT31;13742;49.306;8.636;2022-08-21T04:35:03;18.01;61.87
25945;SHT31;13742;49.306;8.636;2022-08-21T04:35:53;17.98;62.53
25945;SHT31;13742;49.306;8.636;2022-08-21T04:36:53;17.97;62.40
25945;SHT31;13742;49.306;8.636;2022-08-21T04:37:53;17.96;62.37
25945;SHT31;13742;49.306;8.636;2022-08-21T04:38:53;17.93;62.77
25945;SHT31;13742;49.306;8.636;2022-08-21T04:39:53;17.91;62.49
25945;SHT31;13742;49.306;8.636;2022-08-21T04:40:53;17.93;62.54
25945;SHT31;13742;49.306;8.636;2022-08-21T04:41:53;17.93;62.86
25945;SHT31;13742;49.306;8.636;2022-08-21T04:42:57;17.87;62.86
25945;SHT31;13742;49.306;8.636;2022-08-21T04:43:55;17.86;63.07
25945;SHT31;13742;49.306;8.636;2022-08-21T04:44:54;17.80;63.87
25945;SHT31;13742;49.306;8.636;2022-08-21T04:45:53;17.81;63.64
25945;SHT31;13742;49.306;8.636;2022-08-21T04:46:53;17.83;62.87
25945;SHT31;13742;49.306;8.636;2022-08-21T04:47:56;17.84;62.97
25945;SHT31;13742;49.306;8.636;2022-08-21T04:48:53;17.86;62.82
25945;SHT31;13742;49.306;8.636;2022-08-21T04:49:53;17.83;63.28
25945;SHT31;13742;49.306;8.636;2022-08-21T04:50:58;17.80;63.67
25945;SHT31;13742;49.306;8.636;2022-08-21T04:51:53;17.79;63.18
25945;SHT31;13742;49.306;8.636;2022-08-21T04:52:53;17.79;63.20
25945;SHT31;13742;49.306;8.636;2022-08-21T04:53:59;17.79;63.07
25945;SHT31;13742;49.306;8.636;2022-08-21T04:54:53;17.77;63.55
25945;SHT31;13742;49.306;8.636;2022-08-21T04:55:54;17.80;63.21
25945;SHT31;13742;49.306;8.636;2022-08-21T04:57:00;17.83;63.02
25945;SHT31;13742;49.306;8.636;2022-08-21T04:57:55;17.86;62.98
25945;SHT31;13742;49.306;8.636;2022-08-21T04:58:55;17.84;63.29
25945;SHT31;13742;49.306;8.636;2022-08-21T04:59:53;17.83;63.97
25945;SHT31;13742;49.306;8.636;2022-08-21T05:00:56;17.81;63.87
25945;SHT31;13742;49.306;8.636;2022-08-21T05:01:54;17.83;63.58
25945;SHT31;13742;49.306;8.636;2022-08-21T05:02:57;17.83;64.39
25945;SHT31;13742;49.306;8.636;2022-08-21T05:03:56;17.83;63.88
25945;SHT31;13742;49.306;8.636;2022-08-21T05:04:54;17.79;64.56
25945;SHT31;13742;49.306;8.636;2022-08-21T05:05:54;17.79;64.83
25945;SHT31;13742;49.306;8.636;2022-08-21T05:06:54;17.81;63.55
25945;SHT31;13742;49.306;8.636;2022-08-21T05:07:53;17.83;63.33
25945;SHT31;13742;49.306;8.636;2022-08-21T05:08:55;17.86;63.43
25945;SHT31;13742;49.306;8.636;2022-08-21T05:09:53;17.88;63.72
25945;SHT31;13742;49.306;8.636;2022-08-21T05:10:54;17.93;64.02
25945;SHT31;13742;49.306;8.636;2022-08-21T05:11:53;17.91;64.47
25945;SHT31;13742;49.306;8.636;2022-08-21T05:12:53;17.90;64.77
25945;SHT31;13742;49.306;8.636;2022-08-21T05:13:53;17.91;64.59
25945;SHT31;13742;49.306;8.636;2022-08-21T05:14:53;17.90;64.09
25945;SHT31;13742;49.306;8.636;2022-08-21T05:15:53;17.94;64.19
25945;SHT31;13742;49.306;8.636;2022-08-21T05:16:53;17.94;64.21
25945;SHT31;13742;49.306;8.636;2022-08-21T05:17:53;17.96;64.36
25945;SHT31;13742;49.306;8.636;2022-08-21T05:18:53;17.97;63.96
25945;SHT31;13742;49.306;8.636;2022-08-21T05:19:53;17.98;64.03
25945;SHT31;13742;49.306;8.636;2022-08-21T05:20:53;17.97;63.78
25945;SHT31;13742;49.306;8.636;2022-08-21T05:21:53;17.97;64.22
25945;SHT31;13742;49.306;8.636;2022-08-21T05:22:53;18.01;64.27
25945;SHT31;13742;49.306;8.636;2022-08-21T05:23:53;18.03;63.85
25945;SHT31;13742;49.306;8.636;2022-08-21T05:24:53;18.03;63.35
25945;SHT31;13742;49.306;8.636;2022-08-21T05:25:53;18.05;63.15
25945;SHT31;13742;49.306;8.636;2022-08-21T05:26:53;18.05;63.79
25945;SHT31;13742;49.306;8.636;2022-08-21T05:27:53;18.09;63.82
25945;SHT31;13742;49.306;8.636;2022-08-21T05:28:53;18.07;64.13
25945;SHT31;13742;49.306;8.636;2022-08-21T05:29:53;18.07;63.35
25945;SHT31;13742;49.306;8.636;2022-08-21T05:30:53;18.07;63.61
25945;SHT31;13742;49.306;8.636;2022-08-21T05:31:53;18.08;63.21
25945;SHT31;13742;49.306;8.636;2022-08-21T05:32:57;18.09;63.02
25945;SHT31;13742;49.306;8.636;2022-08-21T05:33:53;18.14;63.12
25945;SHT31;13742;49.306;8.636;2022-08-21T05:34:54;18.15;62.80
25945;SHT31;13742;49.306;8.636;2022-08-21T05:35:54;18.15;62.82
25945;SHT31;13742;49.306;8.636;2022-08-21T05:36:53;18.12;62.86
25945;SHT31;13742;49.306;8.636;2022-08-21T05:37:53;18.15;62.74
25945;SHT31;13742;49.306;8.636;2022-08-21T05:38:53;18.14;63.54
25945;SHT31;13742;49.306;8.636;2022-08-21T05:39:53;18.19;62.90
25945;SHT31;13742;49.306;8.636;2022-08-21T05:40:54;18.19;63.23
25945;SHT31;13742;49.306;8.636;2022-08-21T05:41:53;18.25;63.49
25945;SHT31;13742;49.306;8.636;2022-08-21T05:42:54;18.25;63.34
25945;SHT31;13742;49.306;8.636;2022-08-21T05:43:53;18.27;63.34
25945;SHT31;13742;49.306;8.636;2022-08-21T05:44:53;18.27;63.13
25945;SHT31;13742;49.306;8.636;2022-08-21T05:45:53;18.31;62.87
25945;SHT31;13742;49.306;8.636;2022-08-21T05:46:53;18.32;62.81
25945;SHT31;13742;49.306;8.636;2022-08-21T05:47:53;18.31;62.61
25945;SHT31;13742;49.306;8.636;2022-08-21T05:48:53;18.35;62.84
25945;SHT31;13742;49.306;8.636;2022-08-21T05:49:53;18.38;63.17
25945;SHT31;13742;49.306;8.636;2022-08-21T05:50:53;18.41;63.88
25945;SHT31;13742;49.306;8.636;2022-08-21T05:51:53;18.42;63.54
25945;SHT31;13742;49.306;8.636;2022-08-21T05:52:53;18.48;63.72
25945;SHT31;13742;49.306;8.636;2022-08-21T05:53:53;18.45;63.73
25945;SHT31;13742;49.306;8.636;2022-08-21T05:54:55;18.48;63.89
25945;SHT31;13742;49.306;8.636;2022-08-21T05:55:53;18.51;63.92
25945;SHT31;13742;49.306;8.636;2022-08-21T05:56:53;18.52;63.83
25945;SHT31;13742;49.306;8.636;2022-08-21T05:57:53;18.52;64.22
25945;SHT31;13742;49.306;8.636;2022-08-21T05:58:53;18.54;63.68
25945;SHT31;13742;49.306;8.636;2022-08-21T05:59:53;18.56;63.51
25945;SHT31;13742;49.306;8.636;2022-08-21T06:00:53;18.56;63.28
25945;SHT31;13742;49.306;8.636;2022-08-21T06:01:53;18.56;63.84
25945;SHT31;13742;49.306;8.636;2022-08-21T06:02:53;18.60;63.48
25945;SHT31;13742;49.306;8.636;2022-08-21T06:03:53;18.62;63.26
25945;SHT31;13742;49.306;8.636;2022-08-21T06:04:56;18.63;63.76
25945;SHT31;13742;49.306;8.636;2022-08-21T06:05:53;18.65;63.88
25945;SHT31;13742;49.306;8.636;2022-08-21T06:06:53;18.65;63.61
25945;SHT31;13742;49.306;8.636;2022-08-21T06:07:53;18.65;63.70
25945;SHT31;13742;49.306;8.636;2022-08-21T06:08:53;18.65;63.72
25945;SHT31;13742;49.306;8.636;2022-08-21T06:09:53;18.68;64.13
25945;SHT31;13742;49.306;8.636;2022-08-21T06:10:54;18.69;63.39
25945;SHT31;13742;49.306;8.636;2022-08-21T06:11:53;18.72;64.08
25945;SHT31;13742;49.306;8.636;2022-08-21T06:12:54;18.72;64.25
25945;SHT31;13742;49.306;8.636;2022-08-21T06:13:53;18.65;65.19
25945;SHT31;13742;49.306;8.636;2022-08-21T06:14:53;18.65;64.71
25945;SHT31;13742;49.306;8.636;2022-08-21T06:16:53;18.68;64.36
25945;SHT31;13742;49.306;8.636;2022-08-21T06:17:54;18.68;64.54
25945;SHT31;13742;49.306;8.636;2022-08-21T06:18:53;18.69;64.90
25945;SHT31;13742;49.306;8.636;2022-08-21T06:19:53;18.73;64.52